Terminal Aerodrome Forecast
Issued by NWS

Home | Current Version | Previous Version | Text Only | Print | Product List | Glossary On
Versions: 1 2 3 4 5 6 7 8 9 10 11 12 13 14 15 16 17 18 19 20 21 22 23 24 25 26 27 28 29 30 31 32
031
FTUS41 KOKX 190835 AAA
TAFTEB
TAF AMD
KTEB 190835Z 1909/2006 VRB02KT P6SM SKC
     FM191500 22008KT P6SM FEW250
     FM191900 21010G18KT P6SM FEW250
     FM192300 21007KT P6SM FEW250
     FM200100 VRB04KT P6SM SKC=

USA.gov is the U.S. government's official web portal to all federal, state and local government web resources and services.